createdAt,value
2023-05-09T00:00:13.831Z,12.57
2023-05-09T00:02:42.255Z,12.33
2023-05-09T00:05:10.058Z,12.63
2023-05-09T00:07:37.461Z,12.41
2023-05-09T00:10:05.486Z,12.51
2023-05-09T00:12:32.896Z,12.26
2023-05-09T00:15:00.304Z,11.68
2023-05-09T00:17:28.650Z,11.99
2023-05-09T00:19:56.104Z,12.08
2023-05-09T00:22:23.548Z,12.20
2023-05-09T00:24:51.332Z,11.87
2023-05-09T00:27:19.112Z,11.08
2023-05-09T00:29:48.525Z,10.77
2023-05-09T00:32:16.168Z,10.80
2023-05-09T00:34:43.585Z,10.83
2023-05-09T00:37:11.072Z,11.01
2023-05-09T00:39:38.725Z,10.57
2023-05-09T00:42:07.554Z,10.89
2023-05-09T00:44:34.952Z,11.09
2023-05-09T00:47:02.703Z,11.05
2023-05-09T00:49:30.076Z,11.07
2023-05-09T00:51:57.503Z,10.62
2023-05-09T00:54:25.604Z,10.94
2023-05-09T00:56:53.020Z,10.41
2023-05-09T00:59:20.908Z,10.77
2023-05-09T01:01:48.611Z,11.01
2023-05-09T01:04:17.160Z,10.89
2023-05-09T01:07:15.459Z,10.40
2023-05-09T01:10:09.621Z,10.87
2023-05-09T01:12:49.632Z,10.97
2023-05-09T01:15:41.391Z,11.00
2023-05-09T01:18:13.961Z,10.92
2023-05-09T01:20:53.966Z,10.53
2023-05-09T01:23:49.363Z,10.96
2023-05-09T01:26:26.165Z,10.79
2023-05-09T01:29:15.314Z,10.66
2023-05-09T01:31:44.778Z,10.96
2023-05-09T01:34:14.467Z,10.83
2023-05-09T01:36:43.484Z,10.80
2023-05-09T01:39:12.874Z,11.18
2023-05-09T01:41:40.409Z,11.35
2023-05-09T01:44:11.557Z,11.35
2023-05-09T01:46:39.962Z,10.79
2023-05-09T01:49:09.082Z,11.13
2023-05-09T01:51:37.740Z,11.06
2023-05-09T01:54:06.592Z,11.01
2023-05-09T01:56:36.256Z,11.04
2023-05-09T01:59:06.609Z,10.96
2023-05-09T02:01:35.073Z,10.84
2023-05-09T02:04:03.575Z,10.89
2023-05-09T02:06:31.741Z,10.84
2023-05-09T02:08:59.478Z,11.05
2023-05-09T02:11:27.097Z,11.17
2023-05-09T02:13:54.478Z,11.02
2023-05-09T02:16:22.565Z,10.91
2023-05-09T02:18:50.330Z,10.88
2023-05-09T02:21:17.889Z,11.35
2023-05-09T02:23:45.413Z,11.30
2023-05-09T02:26:14.894Z,11.13
2023-05-09T02:28:43.017Z,11.07
2023-05-09T02:31:12.471Z,11.31
2023-05-09T02:33:41.576Z,11.40
2023-05-09T02:36:09.797Z,11.36
2023-05-09T02:38:37.225Z,11.20
2023-05-09T02:41:04.944Z,11.47
2023-05-09T02:43:32.308Z,11.37
2023-05-09T02:45:59.709Z,11.32
2023-05-09T02:48:27.491Z,11.03
2023-05-09T02:50:54.849Z,11.02
2023-05-09T02:53:22.321Z,11.15
2023-05-09T02:55:50.465Z,10.91
2023-05-09T02:58:17.845Z,10.90
2023-05-09T03:00:45.472Z,10.85
2023-05-09T03:03:13.561Z,10.85
2023-05-09T03:05:41.305Z,10.55
2023-05-09T03:08:11.408Z,10.57
2023-05-09T03:10:39.078Z,10.63
2023-05-09T03:13:06.617Z,10.68
2023-05-09T03:15:34.058Z,10.47
2023-05-09T03:18:01.760Z,9.38
2023-05-09T03:20:29.874Z,9.57
2023-05-09T03:22:57.263Z,9.81
2023-05-09T03:25:26.378Z,9.96
2023-05-09T03:27:53.802Z,10.29
2023-05-09T03:30:21.240Z,9.87
2023-05-09T03:32:49.192Z,10.18
2023-05-09T03:35:16.870Z,10.26
2023-05-09T03:37:44.666Z,10.16
2023-05-09T03:40:12.496Z,10.39
2023-05-09T03:42:40.298Z,10.44
2023-05-09T03:45:08.209Z,10.37
2023-05-09T03:47:36.031Z,10.18
2023-05-09T03:50:04.278Z,10.37
2023-05-09T03:52:32.180Z,10.29
2023-05-09T03:54:59.997Z,10.14
2023-05-09T03:57:27.462Z,10.47
2023-05-09T03:59:55.936Z,10.73
2023-05-09T04:02:23.955Z,10.71
2023-05-09T04:04:53.051Z,10.61
2023-05-09T04:07:20.830Z,10.55
2023-05-09T04:09:49.508Z,10.70
2023-05-09T04:12:17.180Z,10.64
2023-05-09T04:14:48.188Z,11.03
2023-05-09T04:17:17.256Z,11.31
2023-05-09T04:19:45.621Z,11.52
2023-05-09T04:22:13.184Z,11.25
2023-05-09T04:24:41.205Z,11.54
2023-05-09T04:27:08.534Z,11.87
2023-05-09T04:29:36.415Z,12.24
2023-05-09T04:32:05.070Z,12.57
2023-05-09T04:34:33.389Z,12.73
2023-05-09T04:37:02.081Z,12.65
2023-05-09T04:39:30.509Z,12.70
2023-05-09T04:41:59.507Z,12.95
2023-05-09T04:44:26.893Z,12.97
2023-05-09T04:46:55.164Z,13.36
2023-05-09T04:49:22.543Z,13.79
2023-05-09T04:51:50.758Z,13.85
2023-05-09T04:54:18.413Z,14.26
2023-05-09T04:56:47.043Z,14.29
2023-05-09T04:59:15.931Z,14.47
2023-05-09T05:01:43.805Z,14.56
2023-05-09T05:04:11.505Z,14.89
2023-05-09T05:06:38.901Z,13.83
2023-05-09T05:09:06.884Z,14.30
2023-05-09T05:11:35.642Z,14.59
2023-05-09T05:14:03.600Z,14.16
2023-05-09T05:16:31.421Z,13.87
2023-05-09T05:18:58.965Z,13.86
2023-05-09T05:21:26.589Z,12.97
2023-05-09T05:23:54.265Z,12.46
2023-05-09T05:26:22.048Z,12.58
2023-05-09T05:28:49.445Z,12.84
2023-05-09T05:31:17.167Z,13.17
2023-05-09T05:33:44.841Z,13.17
2023-05-09T05:36:12.346Z,13.42
2023-05-09T05:38:40.598Z,13.60
2023-05-09T05:41:11.288Z,13.91
2023-05-09T05:43:38.988Z,14.23
2023-05-09T05:46:07.107Z,14.55
2023-05-09T05:48:34.821Z,14.35
2023-05-09T05:51:02.827Z,14.97
2023-05-09T05:53:32.151Z,15.01
2023-05-09T05:56:00.647Z,14.74
2023-05-09T05:58:28.090Z,15.06
2023-05-09T06:00:55.855Z,14.50
2023-05-09T06:03:23.590Z,13.72
2023-05-09T06:05:51.342Z,13.39
2023-05-09T06:08:18.819Z,13.52
2023-05-09T06:10:46.498Z,13.45
2023-05-09T06:13:13.937Z,13.34
2023-05-09T06:15:41.734Z,13.73
2023-05-09T06:18:09.536Z,13.49
2023-05-09T06:20:36.958Z,13.51
2023-05-09T06:23:04.281Z,13.99
2023-05-09T06:25:31.992Z,14.15
2023-05-09T06:27:59.350Z,14.04
2023-05-09T06:30:27.727Z,14.08
2023-05-09T06:32:58.301Z,14.09
2023-05-09T06:35:25.863Z,14.59
2023-05-09T06:37:53.283Z,14.36
2023-05-09T06:40:21.066Z,14.31
2023-05-09T06:42:48.470Z,13.73
2023-05-09T06:45:16.333Z,14.47
2023-05-09T06:47:44.329Z,15.13
2023-05-09T06:50:11.781Z,15.51
2023-05-09T06:52:39.154Z,15.47
2023-05-09T06:55:07.588Z,15.21
2023-05-09T06:57:35.011Z,15.55
2023-05-09T07:00:21.681Z,15.94
2023-05-09T07:02:49.365Z,16.05
2023-05-09T07:05:16.963Z,15.80
2023-05-09T07:07:44.773Z,16.24
2023-05-09T07:10:12.804Z,16.13
2023-05-09T07:12:42.097Z,16.35
2023-05-09T07:15:10.078Z,16.45
2023-05-09T07:17:38.018Z,16.78
2023-05-09T07:20:06.275Z,16.20
2023-05-09T07:22:35.580Z,16.44
2023-05-09T07:25:10.209Z,17.19
2023-05-09T07:27:38.007Z,16.79
2023-05-09T07:30:06.637Z,16.94
2023-05-09T07:32:34.675Z,17.22
2023-05-09T07:35:03.152Z,16.75
2023-05-09T07:37:31.815Z,16.88
2023-05-09T07:39:59.629Z,17.39
2023-05-09T07:42:26.966Z,17.46
2023-05-09T07:44:54.616Z,16.93
2023-05-09T07:47:22.008Z,16.99
2023-05-09T07:49:49.514Z,17.24
2023-05-09T07:52:17.762Z,16.90
2023-05-09T07:54:45.152Z,16.39
2023-05-09T07:57:12.764Z,16.53
2023-05-09T07:59:40.576Z,17.28
2023-05-09T08:02:08.346Z,17.88
2023-05-09T08:04:39.135Z,18.12
2023-05-09T08:07:07.321Z,17.61
2023-05-09T08:09:34.982Z,17.80
2023-05-09T08:12:02.752Z,17.99
2023-05-09T08:14:30.357Z,17.01
2023-05-09T08:16:57.730Z,17.34
2023-05-09T08:19:26.332Z,16.77
2023-05-09T08:21:53.912Z,17.10
2023-05-09T08:24:21.484Z,17.34
2023-05-09T08:26:49.193Z,17.71
2023-05-09T08:29:17.722Z,18.06
2023-05-09T08:31:45.193Z,18.24
2023-05-09T08:34:13.093Z,18.45
2023-05-09T08:36:41.052Z,18.07
2023-05-09T08:39:09.740Z,17.66
2023-05-09T08:41:38.881Z,17.88
2023-05-09T08:44:06.640Z,17.62
2023-05-09T08:46:39.485Z,18.01
2023-05-09T08:49:08.340Z,18.06
2023-05-09T08:51:44.670Z,17.72
2023-05-09T08:54:12.756Z,18.24
2023-05-09T08:56:41.151Z,18.22
2023-05-09T08:59:09.283Z,18.62
2023-05-09T09:01:37.055Z,18.32
2023-05-09T09:04:08.289Z,18.40
2023-05-09T09:06:36.427Z,18.74
2023-05-09T09:09:09.100Z,19.19
2023-05-09T09:11:37.455Z,19.32
2023-05-09T09:14:13.884Z,18.82
2023-05-09T09:16:42.914Z,19.18
2023-05-09T09:19:13.226Z,19.18
2023-05-09T09:21:43.032Z,19.41
2023-05-09T09:24:12.908Z,18.21
2023-05-09T09:26:47.964Z,18.72
2023-05-09T09:29:16.908Z,18.40
2023-05-09T09:31:46.225Z,18.31
2023-05-09T09:34:20.427Z,18.22
2023-05-09T09:36:51.096Z,18.39
2023-05-09T09:39:18.546Z,18.84
2023-05-09T09:41:45.963Z,19.57
2023-05-09T09:44:16.202Z,18.58
2023-05-09T09:46:47.313Z,18.78
2023-05-09T09:49:16.423Z,18.62
2023-05-09T09:51:44.483Z,19.00
2023-05-09T09:54:12.964Z,18.83
2023-05-09T09:56:41.216Z,18.48
2023-05-09T09:59:19.116Z,18.87
2023-05-09T10:01:56.688Z,18.66
2023-05-09T10:04:25.544Z,19.21
2023-05-09T10:07:14.886Z,18.91
2023-05-09T10:09:44.013Z,19.34
2023-05-09T10:12:12.056Z,19.12
2023-05-09T10:14:42.284Z,18.57
2023-05-09T10:17:11.757Z,18.63
2023-05-09T10:19:44.180Z,18.86
2023-05-09T10:22:13.655Z,18.91
2023-05-09T10:24:48.848Z,18.75
2023-05-09T10:27:19.804Z,18.83
2023-05-09T10:29:52.224Z,19.16
2023-05-09T10:32:39.473Z,18.98
2023-05-09T10:35:08.539Z,19.63
2023-05-09T10:37:37.211Z,19.63
2023-05-09T10:40:05.408Z,18.44
2023-05-09T10:42:32.869Z,18.26
2023-05-09T10:45:01.091Z,18.82
2023-05-09T10:47:29.109Z,18.45
2023-05-09T10:49:56.632Z,18.98
2023-05-09T10:52:24.300Z,19.20
2023-05-09T11:25:50.211Z,19.50
2023-05-09T11:28:34.733Z,19.90
2023-05-09T11:31:24.494Z,19.86
2023-05-09T11:34:06.629Z,19.23
2023-05-09T11:36:42.788Z,18.66
2023-05-09T11:39:25.718Z,19.00
2023-05-09T11:41:54.237Z,20.13
2023-05-09T11:47:14.627Z,19.58
2023-05-09T11:49:46.244Z,20.11
2023-05-09T11:52:14.245Z,20.28
2023-05-09T11:55:12.604Z,20.39
2023-05-09T11:57:56.011Z,19.32
2023-05-09T12:00:31.810Z,19.62
2023-05-09T12:03:06.008Z,19.36
2023-05-09T12:05:42.722Z,18.83
2023-05-09T12:08:18.382Z,19.50
2023-05-09T12:10:47.806Z,19.59
2023-05-09T12:13:24.314Z,18.95
2023-05-09T12:16:00.967Z,19.15
2023-05-09T12:18:37.056Z,19.87
2023-05-09T12:21:09.883Z,20.29
2023-05-09T12:23:53.321Z,20.47
2023-05-09T12:26:25.004Z,20.75
2023-05-09T12:29:00.390Z,19.83
2023-05-09T12:31:32.396Z,20.07
2023-05-09T12:34:13.455Z,20.12
2023-05-09T12:36:53.851Z,19.89
2023-05-09T12:39:30.707Z,19.81
2023-05-09T12:42:14.900Z,19.52
2023-05-09T12:44:49.562Z,19.57
2023-05-09T12:47:27.141Z,18.88
2023-05-09T12:50:05.803Z,19.28
2023-05-09T12:52:58.993Z,18.66
2023-05-09T12:55:33.163Z,18.93
2023-05-09T12:58:06.656Z,18.41
2023-05-09T13:00:44.869Z,18.52
2023-05-09T13:03:32.234Z,18.65
2023-05-09T13:06:24.413Z,19.04
2023-05-09T13:09:22.960Z,19.10
2023-05-09T13:12:20.146Z,19.76
2023-05-09T13:18:10.167Z,19.00
2023-05-09T13:20:49.866Z,18.94
2023-05-09T13:23:32.116Z,19.32
2023-05-09T13:26:21.427Z,19.42
2023-05-09T13:29:01.028Z,19.26
2023-05-09T13:32:01.258Z,19.46
2023-05-09T13:34:37.087Z,19.76
2023-05-09T13:37:21.528Z,19.34
2023-05-09T13:40:16.042Z,18.91
2023-05-09T13:43:30.596Z,19.60
2023-05-09T13:49:22.732Z,19.39
2023-05-09T13:52:00.711Z,19.28
2023-05-09T13:54:43.872Z,19.56
2023-05-09T13:57:17.565Z,19.01
2023-05-09T14:00:07.295Z,19.51
2023-05-09T14:03:01.353Z,18.89
2023-05-09T14:05:57.357Z,18.55
2023-05-09T14:08:38.846Z,19.26
2023-05-09T14:11:14.180Z,18.94
2023-05-09T14:13:46.961Z,19.41
2023-05-09T14:16:21.343Z,19.86
2023-05-09T14:19:18.665Z,20.02
2023-05-09T14:22:04.641Z,19.95
2023-05-09T14:24:37.416Z,19.63
2023-05-09T14:27:10.867Z,19.36
2023-05-09T14:29:41.308Z,19.93
2023-05-09T14:32:27.613Z,20.16
2023-05-09T14:35:13.442Z,20.30
2023-05-09T14:37:48.867Z,20.93
2023-05-09T14:40:40.865Z,20.96
2023-05-09T14:43:34.043Z,20.40
2023-05-09T14:46:31.001Z,19.90
2023-05-09T14:49:10.447Z,19.14
2023-05-09T14:51:53.784Z,19.16
2023-05-09T14:54:53.897Z,19.50
2023-05-09T14:57:56.294Z,19.49
2023-05-09T15:00:35.844Z,19.70
2023-05-09T15:03:16.963Z,19.38
2023-05-09T15:05:55.711Z,19.64
2023-05-09T15:08:34.939Z,19.69
2023-05-09T15:11:26.607Z,19.87
2023-05-09T15:14:19.504Z,19.83
2023-05-09T15:17:15.926Z,19.92
2023-05-09T15:20:29.791Z,19.74
2023-05-09T15:23:16.583Z,20.06
2023-05-09T15:26:11.311Z,19.75
2023-05-09T15:29:29.016Z,19.97
2023-05-09T15:32:18.205Z,19.66
2023-05-09T15:35:18.796Z,19.05
2023-05-09T15:38:22.219Z,19.08
2023-05-09T15:40:53.497Z,19.04
2023-05-09T15:46:31.509Z,18.86
2023-05-09T15:49:06.069Z,18.78
2023-05-09T15:54:58.951Z,18.80
2023-05-09T15:57:52.500Z,18.86
2023-05-09T16:00:33.818Z,18.43
2023-05-09T16:03:09.114Z,18.59
2023-05-09T16:05:51.134Z,18.86
2023-05-09T16:08:37.198Z,18.90
2023-05-09T16:11:32.402Z,18.53
2023-05-09T16:14:14.966Z,18.60
2023-05-09T16:17:14.233Z,19.24
2023-05-09T16:20:21.663Z,19.12
2023-05-09T16:23:07.911Z,19.43
2023-05-09T16:26:16.196Z,19.31
2023-05-09T16:33:21.774Z,18.48
2023-05-09T16:36:15.920Z,18.99
2023-05-09T16:39:48.703Z,18.89
2023-05-09T16:42:46.783Z,18.84
2023-05-09T16:45:27.441Z,18.09
2023-05-09T16:48:43.755Z,18.22
2023-05-09T16:58:04.815Z,18.34
2023-05-09T17:00:53.912Z,18.01
2023-05-09T17:03:36.971Z,18.23
2023-05-09T17:06:22.366Z,18.23
2023-05-09T17:09:15.260Z,18.47
2023-05-09T17:12:22.989Z,18.16
2023-05-09T17:15:47.606Z,18.62
2023-05-09T17:21:59.089Z,18.09
2023-05-09T17:24:37.627Z,18.11
2023-05-09T17:30:43.530Z,17.89
2023-05-09T17:36:22.361Z,18.11
2023-05-09T17:39:21.892Z,17.63
2023-05-09T17:42:20.353Z,17.73
2023-05-09T17:45:12.353Z,17.66
2023-05-09T17:48:13.536Z,17.83
2023-05-09T17:57:04.110Z,17.78
2023-05-09T17:59:57.018Z,17.89
2023-05-09T18:03:00.945Z,17.37
2023-05-09T18:05:46.452Z,17.66
2023-05-09T18:08:24.771Z,17.79
2023-05-09T18:11:04.092Z,17.60
2023-05-09T18:13:48.177Z,17.20
2023-05-09T18:16:29.306Z,17.36
2023-05-09T18:19:15.920Z,17.38
2023-05-09T18:22:01.340Z,17.27
2023-05-09T18:25:05.764Z,17.45
2023-05-09T18:28:00.737Z,17.16
2023-05-09T18:30:40.744Z,17.02
2023-05-09T18:37:08.396Z,16.65
2023-05-09T18:40:30.377Z,16.99
2023-05-09T18:43:38.138Z,17.14
2023-05-09T18:47:10.065Z,16.95
2023-05-09T18:50:40.333Z,17.08
2023-05-09T18:53:47.860Z,17.14
2023-05-09T18:57:23.250Z,17.28
2023-05-09T19:04:24.169Z,16.50
2023-05-09T19:07:00.636Z,16.43
2023-05-09T19:09:44.116Z,16.04
2023-05-09T19:27:53.456Z,16.11
2023-05-09T19:31:02.280Z,16.04
2023-05-09T19:33:53.056Z,16.04
2023-05-09T19:36:57.380Z,15.97
2023-05-09T19:39:49.609Z,15.86
2023-05-09T19:43:13.097Z,16.35
2023-05-09T19:46:27.315Z,16.11
2023-05-09T19:49:44.860Z,15.94
2023-05-09T19:52:38.889Z,15.54
2023-05-09T19:55:32.576Z,15.37
2023-05-09T19:58:27.106Z,15.28
2023-05-09T20:01:14.047Z,15.58
2023-05-09T20:03:53.402Z,15.39
2023-05-09T20:09:55.995Z,15.28
2023-05-09T20:12:49.738Z,15.73
2023-05-09T20:16:03.493Z,15.28
2023-05-09T20:19:09.838Z,15.31
2023-05-09T20:21:51.887Z,15.22
2023-05-09T20:24:38.948Z,15.40
2023-05-09T20:30:30.424Z,15.56
2023-05-09T20:33:09.575Z,15.75
2023-05-09T20:36:12.764Z,15.54
2023-05-09T20:38:52.465Z,15.48
2023-05-09T20:42:03.085Z,15.36
2023-05-09T20:45:01.698Z,15.35
2023-05-09T20:47:57.218Z,15.00
2023-05-09T20:50:33.825Z,15.05
2023-05-09T20:53:24.056Z,14.85
2023-05-09T20:56:05.586Z,14.95
2023-05-09T20:58:51.185Z,15.25
2023-05-09T21:01:53.642Z,15.30
2023-05-09T21:04:36.423Z,15.18
2023-05-09T21:07:23.989Z,15.37
2023-05-09T21:10:32.588Z,15.05
2023-05-09T21:13:24.603Z,14.97
2023-05-09T21:16:23.603Z,14.93
2023-05-09T21:19:19.380Z,14.89
2023-05-09T21:22:11.062Z,14.50
2023-05-09T21:24:53.800Z,14.79
2023-05-09T21:27:41.724Z,14.46
2023-05-09T21:30:27.655Z,14.56
2023-05-09T21:33:31.017Z,14.56
2023-05-09T21:36:08.829Z,14.59
2023-05-09T21:39:09.592Z,14.65
2023-05-09T21:41:42.238Z,14.53
2023-05-09T21:47:42.712Z,14.54
2023-05-09T21:50:36.930Z,14.37
2023-05-09T21:53:26.609Z,14.24
2023-05-09T21:59:38.541Z,14.54
2023-05-09T22:02:42.755Z,14.44
2023-05-09T22:05:27.342Z,14.52
2023-05-09T22:08:07.720Z,14.20
2023-05-09T22:10:49.650Z,14.73
2023-05-09T22:13:31.330Z,14.52
2023-05-09T22:16:19.755Z,14.71
2023-05-09T22:19:18.045Z,14.59
2023-05-09T22:22:05.119Z,14.21
2023-05-09T22:24:53.027Z,14.57
2023-05-09T22:28:00.858Z,14.56
2023-05-09T22:30:52.194Z,14.72
2023-05-09T22:33:27.296Z,14.41
2023-05-09T22:36:10.575Z,14.78
2023-05-09T22:38:55.882Z,14.85
2023-05-09T22:41:45.729Z,14.99
2023-05-09T22:44:29.308Z,14.97
2023-05-09T22:47:11.005Z,14.89
2023-05-09T22:50:08.500Z,14.47
2023-05-09T22:52:44.222Z,14.56
2023-05-09T22:55:21.241Z,14.26
2023-05-09T22:58:10.151Z,14.29
2023-05-09T23:00:57.823Z,14.09
2023-05-09T23:03:46.798Z,14.02
2023-05-09T23:06:50.168Z,14.04
2023-05-09T23:09:30.200Z,13.87
2023-05-09T23:12:31.702Z,14.44
2023-05-09T23:15:38.559Z,14.61
2023-05-09T23:18:17.020Z,14.85
2023-05-09T23:21:00.674Z,14.92
2023-05-09T23:23:47.969Z,14.72
2023-05-09T23:26:50.794Z,14.94
2023-05-09T23:29:36.226Z,14.89
2023-05-09T23:32:14.062Z,14.90
2023-05-09T23:34:56.895Z,15.04
2023-05-09T23:37:51.849Z,15.01
2023-05-09T23:40:33.849Z,14.84
2023-05-09T23:43:37.396Z,15.05
2023-05-09T23:46:25.694Z,14.99
2023-05-09T23:49:09.303Z,15.06
2023-05-09T23:51:48.871Z,14.64
2023-05-09T23:54:35.927Z,14.62
2023-05-09T23:57:14.930Z,14.66
